Monday, January 22, 2018, 9:07 AM EST

KESN, Easton / Newman Field

Location: Easton, MD, United States Lat: 38.8
Local Time: 9:07 AM EST (14:07 GMT) Lon: -76.067
Time Zone: US/Eastern Elev: 72 ft

Show me the last for .
Show Decoded

2018-01-22 08:45 METAR KESN 221345Z 18007KT 10SM BKN060 10/03 A3020 =
2018-01-22 07:50 METAR KESN 221250Z 19004KT 10SM BKN060 10/03 A3019 =
2018-01-22 06:45 METAR KESN 221145Z 20006KT 10SM BKN060 10/03 A3018 =
2018-01-22 05:45 METAR KESN 221045Z 20006KT 10SM SCT060 BKN110 10/03 A3018 =
2018-01-22 05:06 METAR KESN 221006Z AUTO 20006KT 10SM OVC060 10/04 A3017 RMK AO2 T01010035 =
2018-01-22 04:48 METAR KESN 220948Z AUTO 20006KT 10SM BKN060 10/04 A3017 RMK AO2 T01020035 =
2018-01-22 04:28 METAR KESN 220928Z AUTO 21005KT 10SM SCT060 BKN100 10/04 A3017 RMK AO2 T01010035
                 =
2018-01-22 04:07 METAR KESN 220908Z AUTO 20006KT 10SM SCT060 SCT070 SCT100 10/04 A3017 RMK AO2
                 T01010035 =
2018-01-22 03:48 METAR KESN 220848Z AUTO 21006KT 10SM SCT070 10/04 A3018 RMK AO2 T01010037 =
2018-01-22 03:27 METAR KESN 220828Z AUTO 20005KT 10SM CLR 10/04 A3018 RMK AO2 T01020035 =
2018-01-22 03:08 METAR KESN 220808Z AUTO 20005KT 10SM SCT075 10/04 A3018 RMK AO2 T01020035 =
2018-01-22 02:48 METAR KESN 220748Z AUTO 22004KT 10SM CLR 10/04 A3018 RMK AO2 T01000035 =
2018-01-22 02:26 METAR KESN 220728Z AUTO 23005KT 10SM CLR 10/04 A3018 RMK AO2 T00950035 =
2018-01-22 02:06 METAR KESN 220708Z AUTO 22005KT 10SM SCT080 10/04 A3018 RMK AO2 T01000036 =
2018-01-22 01:48 METAR KESN 220648Z AUTO 21005KT 10SM CLR 10/04 A3018 RMK AO2 T01010037 =
2018-01-22 01:28 METAR KESN 220628Z AUTO 21006KT 10SM SCT080 SCT100 11/04 A3018 RMK AO2 T01050037
                 =
2018-01-22 01:06 METAR KESN 220608Z AUTO 22006KT 10SM SCT100 11/04 A3018 RMK AO2 T01050038 =
2018-01-22 00:48 METAR KESN 220548Z AUTO 21007KT 10SM CLR 11/04 A3019 RMK AO2 T01060039 =
2018-01-22 00:27 METAR KESN 220528Z AUTO 22006KT 10SM CLR 11/04 A3019 RMK AO2 T01060038 =
2018-01-22 00:07 METAR KESN 220508Z AUTO 21007KT 10SM CLR 11/04 A3020 RMK AO2 T01100040 =
2018-01-21 23:48 METAR KESN 220448Z AUTO 21007KT 10SM CLR 11/04 A3020 RMK AO2 T01110041 =
2018-01-21 23:27 METAR KESN 220428Z AUTO 20008KT 10SM SCT085 11/04 A3020 RMK AO2 T01130041 =
2018-01-21 23:08 METAR KESN 220408Z AUTO 21008KT 10SM SCT085 11/04 A3020 RMK AO2 T01120041 =
2018-01-21 22:48 METAR KESN 220348Z AUTO 21009G14KT 10SM SCT085 11/04 A3020 RMK AO2 T01120041 =
2018-01-21 22:26 METAR KESN 220328Z AUTO 21009KT 10SM SCT085 11/04 A3021 RMK AO2 T01120040 =
2018-01-21 21:55 METAR KESN 220255Z 20009KT 10SM SCT085 11/04 A3021 =
2018-01-21 20:50 METAR KESN 220150Z 18007KT 10SM SCT085 10/03 A3020 =
2018-01-21 19:50 METAR KESN 220050Z 19006KT 10SM BKN080 10/03 A3020 =
2018-01-21 18:50 METAR KESN 212350Z 19006KT 10SM BKN080 12/03 A3021 =
2018-01-21 17:50 METAR KESN 212250Z 17006KT 10SM BKN080 12/03 A3021 =
2018-01-21 16:50 METAR KESN 212150Z 20005KT 10SM SCT050 14/03 A3020 =
2018-01-21 15:50 METAR KESN 212050Z 20008KT 10SM SCT090 15/03 A3020 =
2018-01-21 14:50 METAR KESN 211950Z 17005KT 10SM SCT049 15/03 A3020 =
2018-01-21 13:50 METAR KESN 211850Z 16006KT 10SM SCT049 14/02 A3020 =
2018-01-21 12:45 METAR KESN 211745Z 00000KT 10SM BKN049 12/02 A3023 =
2018-01-21 11:50 METAR KESN 211650Z 14003KT 10SM BKN049 11/02 A3025 =
2018-01-21 10:50 METAR KESN 211550Z 00000KT 10SM BKN049 08/02 A3027 =
2018-01-21 09:45 METAR KESN 211445Z 00000KT 10SM OVC044 06/02 A3026 =

Support USWX by starting your Amazon purchase here.